createdAt,value
2023-01-19T00:02:28.432Z,9.20
2023-01-19T00:07:33.044Z,9.40
2023-01-19T00:12:35.586Z,9.93
2023-01-19T00:17:40.782Z,9.87
2023-01-19T00:22:44.664Z,10.23
2023-01-19T00:27:49.300Z,10.23
2023-01-19T00:32:52.264Z,8.70
2023-01-19T00:37:56.834Z,9.97
2023-01-19T00:43:00.647Z,9.43
2023-01-19T00:48:04.776Z,10.83
2023-01-19T00:53:08.665Z,11.50
2023-01-19T00:58:11.277Z,9.50
2023-01-19T01:03:13.998Z,9.43
2023-01-19T01:08:18.004Z,10.50
2023-01-19T01:13:23.652Z,10.03
2023-01-19T01:18:29.352Z,10.93
2023-01-19T01:23:33.300Z,9.80
2023-01-19T01:28:35.858Z,9.30
2023-01-19T01:33:40.472Z,9.90
2023-01-19T01:38:46.052Z,10.67
2023-01-19T01:43:50.848Z,11.00
2023-01-19T01:49:01.031Z,11.40
2023-01-19T01:54:18.189Z,12.13
2023-01-19T01:59:26.579Z,11.13
2023-01-19T02:04:31.033Z,12.40
2023-01-19T02:09:55.284Z,13.10
2023-01-19T02:14:57.851Z,13.20
2023-01-19T02:20:00.542Z,12.53
2023-01-19T02:25:05.551Z,12.80
2023-01-19T02:30:10.106Z,11.63
2023-01-19T02:35:13.434Z,10.70
2023-01-19T02:40:20.676Z,10.53
2023-01-19T02:45:23.870Z,10.70
2023-01-19T02:50:38.243Z,10.43
2023-01-19T02:55:48.673Z,9.73
2023-01-19T03:01:04.696Z,11.23
2023-01-19T03:06:14.553Z,10.10
2023-01-19T03:11:18.692Z,11.17
2023-01-19T03:16:24.280Z,11.13
2023-01-19T03:21:28.912Z,10.47
2023-01-19T03:26:38.033Z,9.83
2023-01-19T03:31:42.877Z,11.43
2023-01-19T03:36:50.630Z,11.57
2023-01-19T03:41:59.557Z,11.90
2023-01-19T03:47:04.048Z,12.40
2023-01-19T03:52:06.968Z,13.13
2023-01-19T03:57:11.343Z,12.67
2023-01-19T04:02:14.761Z,12.20
2023-01-19T04:07:17.566Z,12.30
2023-01-19T04:12:23.398Z,12.00
2023-01-19T04:17:27.371Z,13.70
2023-01-19T04:22:30.811Z,13.80
2023-01-19T04:27:34.766Z,14.53
2023-01-19T04:32:37.758Z,12.47
2023-01-19T04:37:40.328Z,13.07
2023-01-19T04:42:46.021Z,13.17
2023-01-19T04:47:48.622Z,12.30
2023-01-19T04:52:51.758Z,12.80
2023-01-19T04:57:55.887Z,11.80
2023-01-19T05:02:58.659Z,11.10
2023-01-19T05:08:01.776Z,10.57
2023-01-19T05:13:05.762Z,10.77
2023-01-19T05:18:08.764Z,10.50
2023-01-19T05:23:11.581Z,9.70
2023-01-19T05:28:16.660Z,8.70
2023-01-19T05:33:19.220Z,9.53
2023-01-19T05:38:34.592Z,8.60
2023-01-19T05:43:39.046Z,8.37
2023-01-19T05:48:41.659Z,7.27
2023-01-19T05:53:44.212Z,6.27
2023-01-19T05:58:48.149Z,5.77
2023-01-19T06:03:50.768Z,6.53
2023-01-19T06:08:53.370Z,7.17
2023-01-19T06:13:57.357Z,5.77
2023-01-19T06:19:00.325Z,6.30
2023-01-19T06:24:03.493Z,6.00
2023-01-19T06:29:07.825Z,6.27
2023-01-19T06:34:11.349Z,6.60
2023-01-19T06:39:14.177Z,6.07
2023-01-19T06:44:21.381Z,5.83
2023-01-19T06:49:24.748Z,6.40
2023-01-19T06:54:27.395Z,5.83
2023-01-19T06:59:32.032Z,6.70
2023-01-19T07:04:35.127Z,6.17
2023-01-19T07:09:37.913Z,7.40
2023-01-19T07:14:41.848Z,7.83
2023-01-19T07:19:44.426Z,7.20
2023-01-19T07:24:47.143Z,7.57
2023-01-19T07:29:51.455Z,7.47
2023-01-19T07:34:54.224Z,8.37
2023-01-19T07:39:56.903Z,8.27
2023-01-19T07:45:00.900Z,8.70
2023-01-19T07:50:03.549Z,9.00
2023-01-19T07:55:07.210Z,9.10
2023-01-19T08:00:14.368Z,9.27
2023-01-19T08:05:18.134Z,9.53
2023-01-19T08:10:22.890Z,9.20
2023-01-19T08:15:27.289Z,9.70
2023-01-19T08:20:30.520Z,10.77
2023-01-19T08:25:34.367Z,10.27
2023-01-19T08:30:38.736Z,10.50
2023-01-19T08:35:42.744Z,10.63
2023-01-19T08:40:46.198Z,11.07
2023-01-19T08:45:53.828Z,10.93
2023-01-19T08:50:57.010Z,11.10
2023-01-19T08:56:01.213Z,10.80
2023-01-19T09:01:05.521Z,10.60
2023-01-19T09:06:08.908Z,9.63
2023-01-19T09:11:13.155Z,10.87
2023-01-19T09:16:18.081Z,11.47
2023-01-19T09:21:21.068Z,11.17
2023-01-19T09:26:25.055Z,11.40
2023-01-19T09:31:29.388Z,12.27
2023-01-19T09:36:32.376Z,13.03
2023-01-19T09:41:38.471Z,13.50
2023-01-19T09:46:43.122Z,13.93
2023-01-19T09:51:48.733Z,14.03
2023-01-19T09:56:52.933Z,15.03
2023-01-19T10:02:20.187Z,14.87
2023-01-19T10:07:34.201Z,16.20
2023-01-19T10:12:50.918Z,15.97
2023-01-19T10:18:05.016Z,13.83
2023-01-19T10:23:22.719Z,16.47
2023-01-19T10:28:27.491Z,17.47
2023-01-19T10:33:32.828Z,15.47
2023-01-19T10:38:36.118Z,17.47
2023-01-19T10:43:41.522Z,17.00
2023-01-19T10:48:48.963Z,17.93
2023-01-19T10:53:58.353Z,19.73
2023-01-19T10:59:03.091Z,17.47
2023-01-19T11:04:28.605Z,18.70
2023-01-19T11:09:31.192Z,17.77
2023-01-19T11:14:33.822Z,18.47
2023-01-19T11:19:37.791Z,20.03
2023-01-19T11:24:40.561Z,19.47
2023-01-19T11:29:49.036Z,19.20
2023-01-19T11:34:53.401Z,20.17
2023-01-19T11:39:58.705Z,19.80
2023-01-19T11:45:05.960Z,20.33
2023-01-19T11:50:16.219Z,19.53
2023-01-19T11:55:24.055Z,19.90
2023-01-19T12:00:35.471Z,20.33
2023-01-19T12:05:44.035Z,19.77
2023-01-19T12:10:48.515Z,18.37
2023-01-19T12:15:57.708Z,20.63
2023-01-19T12:21:04.100Z,20.23
2023-01-19T12:26:28.166Z,19.07
2023-01-19T12:31:30.806Z,17.80
2023-01-19T12:36:40.103Z,18.47
2023-01-19T12:41:43.647Z,18.57
2023-01-19T12:46:47.668Z,18.20
2023-01-19T12:51:54.432Z,17.33
2023-01-19T12:57:00.949Z,17.03
2023-01-19T13:02:38.338Z,16.67
2023-01-19T13:08:19.222Z,15.70
2023-01-19T13:13:24.421Z,15.20
2023-01-19T13:18:29.562Z,17.77
2023-01-19T13:23:54.623Z,16.07
2023-01-19T13:29:03.638Z,15.83
2023-01-19T13:34:13.530Z,14.67
2023-01-19T13:39:23.668Z,14.20
2023-01-19T13:44:28.928Z,12.73
2023-01-19T13:49:34.485Z,14.43
2023-01-19T13:54:38.413Z,14.40
2023-01-19T13:59:40.998Z,14.47
2023-01-19T14:04:44.029Z,14.33
2023-01-19T14:09:48.659Z,13.33
2023-01-19T14:14:51.347Z,15.03
2023-01-19T14:19:56.224Z,14.23
2023-01-19T14:25:22.228Z,13.63
2023-01-19T14:30:25.910Z,14.10
2023-01-19T14:35:29.951Z,14.37
2023-01-19T14:40:38.760Z,13.20
2023-01-19T14:45:47.843Z,14.77
2023-01-19T14:51:03.495Z,12.93
2023-01-19T14:56:08.439Z,13.10
2023-01-19T15:01:11.112Z,12.03
2023-01-19T15:06:16.205Z,11.70
2023-01-19T15:11:24.237Z,13.90
2023-01-19T15:16:30.177Z,13.80
2023-01-19T15:21:32.886Z,14.00
2023-01-19T15:26:37.866Z,12.97
2023-01-19T15:31:40.465Z,12.87
2023-01-19T15:36:43.331Z,12.83
2023-01-19T15:41:47.982Z,12.50
2023-01-19T15:46:52.232Z,11.50
2023-01-19T15:51:56.514Z,12.80
2023-01-19T15:57:01.482Z,13.10
2023-01-19T16:02:05.795Z,11.70
2023-01-19T16:07:08.993Z,12.13
2023-01-19T16:12:12.903Z,12.03
2023-01-19T16:17:15.619Z,13.60
2023-01-19T16:22:18.196Z,13.47
2023-01-19T16:27:22.104Z,20.67
2023-01-19T16:32:24.743Z,13.97
2023-01-19T16:37:28.182Z,13.33
2023-01-19T16:42:32.111Z,14.77
2023-01-19T16:47:34.855Z,14.30
2023-01-19T16:52:37.475Z,14.10
2023-01-19T16:57:41.412Z,15.60
2023-01-19T17:02:43.974Z,14.60
2023-01-19T17:07:46.517Z,14.27
2023-01-19T17:12:50.620Z,14.60
2023-01-19T17:17:53.274Z,16.03
2023-01-19T17:22:56.847Z,17.00
2023-01-19T17:28:01.231Z,17.13
2023-01-19T17:33:04.149Z,16.27
2023-01-19T17:38:07.135Z,17.20
2023-01-19T17:43:11.022Z,18.40
2023-01-19T17:48:14.025Z,18.00
2023-01-19T17:53:16.712Z,17.97
2023-01-19T17:58:21.171Z,17.30
2023-01-19T18:03:24.118Z,19.07
2023-01-19T18:08:26.937Z,20.10
2023-01-19T18:13:31.298Z,25.53
2023-01-19T18:18:34.495Z,18.50
2023-01-19T18:23:38.422Z,18.30
2023-01-19T18:28:43.102Z,19.27
2023-01-19T18:33:46.594Z,17.50
2023-01-19T18:38:49.832Z,19.13
2023-01-19T18:43:58.155Z,25.93
2023-01-19T18:49:00.850Z,17.70
2023-01-19T18:54:03.595Z,18.77
2023-01-19T18:59:07.548Z,18.43
2023-01-19T19:04:10.247Z,17.40
2023-01-19T19:09:12.852Z,16.40
2023-01-19T19:14:16.833Z,19.77
2023-01-19T19:19:20.323Z,18.97
2023-01-19T19:24:23.315Z,22.40
2023-01-19T19:29:28.289Z,18.13
2023-01-19T19:34:31.353Z,17.17
2023-01-19T19:39:33.957Z,18.37
2023-01-19T19:44:38.483Z,18.33
2023-01-19T19:49:41.196Z,40.80
2023-01-19T19:54:44.364Z,20.90
2023-01-19T19:59:48.502Z,17.40
2023-01-19T20:04:51.493Z,17.07
2023-01-19T20:09:55.247Z,17.07
2023-01-19T20:14:59.526Z,18.90
2023-01-19T20:20:04.304Z,17.00
2023-01-19T20:25:08.023Z,18.20
2023-01-19T20:30:13.444Z,17.77
2023-01-19T20:35:16.360Z,17.83
2023-01-19T20:40:20.120Z,27.10
2023-01-19T20:45:25.906Z,17.90
2023-01-19T20:50:28.591Z,18.80
2023-01-19T20:55:32.008Z,16.70
2023-01-19T21:00:41.530Z,17.47
2023-01-19T21:05:47.684Z,17.20
2023-01-19T21:10:50.380Z,26.17
2023-01-19T21:15:54.387Z,17.80
2023-01-19T21:20:58.210Z,19.23
2023-01-19T21:26:01.723Z,16.90
2023-01-19T21:31:08.649Z,77.57
2023-01-19T21:36:11.859Z,29.87
2023-01-19T21:41:16.405Z,16.80
2023-01-19T21:46:22.600Z,17.53
2023-01-19T21:51:25.224Z,17.57
2023-01-19T21:56:29.333Z,18.50
2023-01-19T22:01:34.175Z,17.60
2023-01-19T22:06:36.803Z,27.90
2023-01-19T22:11:39.451Z,19.27
2023-01-19T22:16:43.564Z,19.17
2023-01-19T22:21:46.172Z,23.70
2023-01-19T22:26:48.726Z,17.47
2023-01-19T22:31:52.936Z,17.87
2023-01-19T22:36:55.541Z,18.97
2023-01-19T22:41:58.171Z,18.97
2023-01-19T22:47:02.187Z,20.77
2023-01-19T22:52:04.937Z,21.83
2023-01-19T22:57:11.047Z,19.37
2023-01-19T23:02:15.054Z,18.07
2023-01-19T23:07:17.662Z,17.53
2023-01-19T23:12:20.906Z,18.93
2023-01-19T23:17:24.930Z,19.47
2023-01-19T23:22:27.459Z,21.60
2023-01-19T23:27:30.031Z,20.37
2023-01-19T23:32:33.975Z,20.20
2023-01-19T23:37:36.544Z,20.43
2023-01-19T23:42:39.293Z,19.00
2023-01-19T23:47:43.885Z,21.00
2023-01-19T23:52:46.507Z,21.37
2023-01-19T23:57:49.063Z,22.70
